Time,TemperatureF,DewpointF,PressureIn,WindDirection,WindDirectionDegrees,WindSpeedMPH,WindSpeedGustMPH,Humidity,HourlyPrecipIn,Conditions,Clouds,dailyrainin,SoftwareType,DateUTC
2013-07-13 00:02:00,68.0,67.0,30.11,ENE,65,7.0,8.0,98,0.00,,,0.00,,2013-07-13 04:02:00,
2013-07-13 00:43:00,67.0,67.0,30.11,NNE,14,4.0,4.0,100,0.00,,,0.00,,2013-07-13 04:43:00,
2013-07-13 00:52:00,67.0,67.0,30.11,NNE,25,6.0,6.0,100,0.00,,,0.00,,2013-07-13 04:52:00,
2013-07-13 01:01:00,67.0,67.0,30.11,NE,45,3.0,7.0,100,0.00,,,0.00,,2013-07-13 05:01:00,
2013-07-13 01:42:00,67.0,67.0,30.11,NE,48,6.0,6.0,100,0.00,,,0.00,,2013-07-13 05:42:00,
2013-07-13 01:52:00,67.0,67.0,30.11,ENE,73,5.0,5.0,100,0.00,,,0.00,,2013-07-13 05:52:00,
2013-07-13 02:02:00,67.0,67.0,30.11,ENE,73,5.0,5.0,100,0.00,,,0.00,,2013-07-13 06:02:00,
2013-07-13 02:11:00,67.0,67.0,30.11,ENE,75,5.0,6.0,100,0.00,,,0.00,,2013-07-13 06:11:00,
2013-07-13 02:32:00,67.0,67.0,30.11,NE,56,7.0,7.0,100,0.00,,,0.00,,2013-07-13 06:32:00,
2013-07-13 02:52:00,67.0,67.0,30.11,NE,55,7.0,7.0,100,0.00,,,0.00,,2013-07-13 06:52:00,
2013-07-13 03:02:00,67.0,67.0,30.10,ENE,62,7.0,7.0,100,0.00,,,0.00,,2013-07-13 07:02:00,
2013-07-13 03:11:00,67.0,67.0,30.10,East,97,7.0,7.0,100,0.00,,,0.00,,2013-07-13 07:11:00,
2013-07-13 03:22:00,66.0,66.0,30.11,NE,53,7.0,7.0,100,0.00,,,0.00,,2013-07-13 07:22:00,
2013-07-13 03:33:00,66.0,66.0,30.11,ENE,76,8.0,8.0,100,0.00,,,0.00,,2013-07-13 07:33:00,
2013-07-13 03:44:00,66.0,66.0,30.11,NE,51,6.0,7.0,100,0.00,,,0.00,,2013-07-13 07:44:00,
2013-07-13 03:53:00,66.0,66.0,30.11,NE,51,5.0,5.0,100,0.00,,,0.00,,2013-07-13 07:53:00,
2013-07-13 04:02:00,66.0,66.0,30.11,NE,42,5.0,6.0,100,0.00,,,0.00,,2013-07-13 08:02:00,
2013-07-13 04:22:00,66.0,66.0,30.11,ENE,66,6.0,8.0,100,0.00,,,0.00,,2013-07-13 08:22:00,
2013-07-13 04:33:00,66.0,66.0,30.11,ENE,66,6.0,8.0,100,0.00,,,0.00,,2013-07-13 08:33:00,
2013-07-13 04:43:00,66.0,66.0,30.12,ENE,73,7.0,9.0,100,0.00,,,0.00,,2013-07-13 08:43:00,
2013-07-13 04:52:00,66.0,66.0,30.12,East,79,7.0,7.0,100,0.00,,,0.00,,2013-07-13 08:52:00,
2013-07-13 05:02:00,66.0,66.0,30.12,NE,56,6.0,8.0,100,0.00,,,0.00,,2013-07-13 09:02:00,
2013-07-13 05:22:00,66.0,66.0,30.13,ENE,75,6.0,6.0,100,0.00,,,0.00,,2013-07-13 09:22:00,
2013-07-13 05:33:00,66.0,66.0,30.13,ENE,62,9.0,11.0,100,0.00,,,0.00,,2013-07-13 09:33:00,
2013-07-13 05:43:00,66.0,66.0,30.13,NE,56,9.0,9.0,100,0.00,,,0.00,,2013-07-13 09:43:00,
2013-07-13 05:53:00,66.0,66.0,30.14,ENE,59,8.0,8.0,100,0.00,,,0.00,,2013-07-13 09:53:00,
2013-07-13 06:01:00,66.0,66.0,30.14,ENE,68,9.0,9.0,100,0.00,,,0.00,,2013-07-13 10:01:00,
2013-07-13 06:32:00,66.0,66.0,30.15,ENE,70,6.0,9.0,100,0.00,,,0.00,,2013-07-13 10:32:00,
2013-07-13 06:43:00,66.0,66.0,30.15,ENE,75,7.0,8.0,100,0.00,,,0.00,,2013-07-13 10:43:00,
2013-07-13 07:02:00,66.0,66.0,30.16,ENE,63,6.0,7.0,100,0.00,,,0.00,,2013-07-13 11:02:00,
2013-07-13 07:11:00,66.0,66.0,30.16,ENE,63,6.0,7.0,100,0.00,,,0.00,,2013-07-13 11:11:00,
2013-07-13 07:32:00,67.0,67.0,30.16,ENE,73,7.0,7.0,100,0.00,,,0.00,,2013-07-13 11:32:00,
2013-07-13 07:43:00,67.0,67.0,30.16,ENE,73,7.0,7.0,100,0.00,,,0.00,,2013-07-13 11:43:00,
2013-07-13 07:52:00,67.0,67.0,30.16,ENE,73,7.0,7.0,100,0.00,,,0.00,,2013-07-13 11:52:00,
2013-07-13 08:02:00,68.0,68.0,30.18,ESE,122,8.0,9.0,100,0.00,,,0.00,,2013-07-13 12:02:00,
2013-07-13 08:52:00,69.0,69.0,30.19,East,101,11.0,11.0,100,0.00,,,0.00,,2013-07-13 12:52:00,
2013-07-13 09:01:00,69.0,69.0,30.19,East,93,8.0,11.0,100,0.00,,,0.00,,2013-07-13 13:01:00,
2013-07-13 09:32:00,69.0,69.0,30.20,ENE,75,8.0,8.0,100,0.00,,,0.00,,2013-07-13 13:32:00,
2013-07-13 09:53:00,69.0,69.0,30.21,East,101,9.0,9.0,100,0.00,,,0.00,,2013-07-13 13:53:00,
2013-07-13 10:22:00,69.0,69.0,30.22,ESE,113,10.0,10.0,100,0.00,,,0.00,,2013-07-13 14:22:00,
2013-07-13 10:32:00,70.0,70.0,30.20,ESE,117,11.0,11.0,100,0.00,,,0.00,,2013-07-13 14:32:00,
2013-07-13 10:43:00,71.0,71.0,30.21,SE,129,9.0,9.0,100,0.00,,,0.00,,2013-07-13 14:43:00,
2013-07-13 10:53:00,71.0,71.0,30.20,ESE,113,12.0,17.0,100,0.00,,,0.00,,2013-07-13 14:53:00,
2013-07-13 11:02:00,72.0,72.0,30.21,ESE,122,10.0,10.0,100,0.00,,,0.00,,2013-07-13 15:02:00,
2013-07-13 11:33:00,73.0,73.0,30.22,SE,141,9.0,10.0,100,0.00,,,0.00,,2013-07-13 15:33:00,
2013-07-13 11:43:00,72.0,72.0,30.22,ESE,110,9.0,9.0,100,0.00,,,0.00,,2013-07-13 15:43:00,
2013-07-13 11:53:00,73.0,73.0,30.22,SE,139,6.0,6.0,100,0.00,,,0.00,,2013-07-13 15:53:00,
2013-07-13 12:02:00,73.0,73.0,30.22,SE,128,4.0,7.0,100,0.00,,,0.00,,2013-07-13 16:02:00,
2013-07-13 12:11:00,73.0,73.0,30.22,SE,128,4.0,7.0,100,0.00,,,0.00,,2013-07-13 16:11:00,
2013-07-13 12:33:00,74.0,74.0,30.23,SSE,159,7.0,7.0,100,0.00,,,0.00,,2013-07-13 16:33:00,
2013-07-13 12:43:00,75.0,75.0,30.23,South,180,8.0,8.0,100,0.00,,,0.00,,2013-07-13 16:43:00,
2013-07-13 12:53:00,76.0,75.0,30.22,South,176,9.0,10.0,96,0.00,,,0.00,,2013-07-13 16:53:00,
2013-07-13 13:01:00,76.0,75.0,30.22,SSW,193,9.0,9.0,96,0.00,,,0.00,,2013-07-13 17:01:00,
2013-07-13 13:12:00,78.0,76.0,30.22,SE,127,9.0,9.0,95,0.00,,,0.00,,2013-07-13 17:12:00,
2013-07-13 13:22:00,77.0,74.0,30.21,SSE,165,11.0,13.0,92,0.00,,,0.00,,2013-07-13 17:22:00,
2013-07-13 13:33:00,78.0,76.0,30.21,SE,127,9.0,9.0,94,0.00,,,0.00,,2013-07-13 17:33:00,
2013-07-13 13:43:00,78.0,74.0,30.21,South,188,5.0,6.0,89,0.00,,,0.00,,2013-07-13 17:43:00,
2013-07-13 13:52:00,78.0,74.0,30.21,SSE,165,7.0,10.0,89,0.00,,,0.00,,2013-07-13 17:52:00,
2013-07-13 14:01:00,78.0,74.0,30.21,SSE,165,7.0,10.0,89,0.00,,,0.00,,2013-07-13 18:01:00,
2013-07-13 14:22:00,78.0,74.0,30.20,SSE,162,10.0,11.0,89,0.00,,,0.00,,2013-07-13 18:22:00,
2013-07-13 14:32:00,78.0,73.0,30.20,SSE,167,11.0,13.0,86,0.00,,,0.00,,2013-07-13 18:32:00,
2013-07-13 14:44:00,79.0,76.0,30.20,SSE,159,8.0,10.0,90,0.00,,,0.00,,2013-07-13 18:44:00,
2013-07-13 14:53:00,79.0,74.0,30.20,SSE,163,12.0,16.0,86,0.00,,,0.00,,2013-07-13 18:53:00,
2013-07-13 15:02:00,79.0,73.0,30.20,WSW,239,9.0,10.0,83,0.00,,,0.00,,2013-07-13 19:02:00,
2013-07-13 15:11:00,81.0,73.0,30.19,South,179,12.0,12.0,76,0.00,,,0.00,,2013-07-13 19:11:00,
2013-07-13 15:22:00,82.0,75.0,30.19,South,180,8.0,11.0,79,0.00,,,0.00,,2013-07-13 19:22:00,
2013-07-13 15:32:00,83.0,72.0,30.19,SSW,193,8.0,9.0,69,0.00,,,0.00,,2013-07-13 19:32:00,
2013-07-13 15:44:00,82.0,70.0,30.19,South,186,10.0,11.0,68,0.00,,,0.00,,2013-07-13 19:44:00,
2013-07-13 15:52:00,82.0,70.0,30.19,South,186,10.0,11.0,68,0.00,,,0.00,,2013-07-13 19:52:00,
2013-07-13 16:01:00,82.0,71.0,30.19,SW,236,7.0,7.0,69,0.00,,,0.00,,2013-07-13 20:01:00,
2013-07-13 16:11:00,83.0,71.0,30.19,SSW,204,7.0,8.0,68,0.00,,,0.00,,2013-07-13 20:11:00,
2013-07-13 16:43:00,82.0,70.0,30.19,South,187,10.0,10.0,68,0.00,,,0.00,,2013-07-13 20:43:00,
2013-07-13 16:52:00,81.0,70.0,30.20,South,190,8.0,8.0,69,0.00,,,0.00,,2013-07-13 20:52:00,
2013-07-13 17:02:00,81.0,66.0,30.19,SSW,193,10.0,10.0,61,0.00,,,0.00,,2013-07-13 21:02:00,
2013-07-13 17:12:00,82.0,70.0,30.20,South,186,11.0,11.0,67,0.00,,,0.00,,2013-07-13 21:12:00,
2013-07-13 17:22:00,82.0,70.0,30.19,SSW,207,10.0,10.0,67,0.00,,,0.00,,2013-07-13 21:22:00,
2013-07-13 17:32:00,82.0,69.0,30.19,WSW,242,3.0,5.0,66,0.00,,,0.00,,2013-07-13 21:32:00,
2013-07-13 17:43:00,83.0,70.0,30.19,SW,231,8.0,9.0,65,0.00,,,0.00,,2013-07-13 21:43:00,
2013-07-13 17:53:00,84.0,70.0,30.19,South,190,8.0,8.0,64,0.00,,,0.00,,2013-07-13 21:53:00,
2013-07-13 18:01:00,84.0,68.0,30.19,West,262,7.0,7.0,59,0.00,,,0.00,,2013-07-13 22:01:00,
2013-07-13 18:12:00,84.0,70.0,30.19,SSW,203,7.0,8.0,63,0.00,,,0.00,,2013-07-13 22:12:00,
2013-07-13 18:22:00,84.0,69.0,30.19,SSW,197,9.0,9.0,60,0.00,,,0.00,,2013-07-13 22:22:00,
2013-07-13 18:32:00,84.0,69.0,30.19,SW,224,7.0,7.0,60,0.00,,,0.00,,2013-07-13 22:32:00,
2013-07-13 18:43:00,85.0,69.0,30.19,West,269,4.0,4.0,58,0.00,,,0.00,,2013-07-13 22:43:00,
2013-07-13 19:02:00,84.0,69.0,30.19,WSW,240,4.0,4.0,60,0.00,,,0.00,,2013-07-13 23:02:00,
2013-07-13 19:11:00,82.0,69.0,30.20,South,187,6.0,7.0,65,0.00,,,0.00,,2013-07-13 23:11:00,
2013-07-13 19:42:00,79.0,69.0,30.22,South,191,6.0,6.0,72,0.00,,,0.00,,2013-07-13 23:42:00,
2013-07-13 19:53:00,79.0,70.0,30.22,South,172,5.0,5.0,74,0.00,,,0.00,,2013-07-13 23:53:00,
2013-07-13 20:01:00,78.0,71.0,30.22,SSE,159,3.0,3.0,78,0.00,,,0.00,,2013-07-14 00:01:00,
2013-07-13 20:12:00,78.0,71.0,30.22,SE,138,1.0,1.0,80,0.00,,,0.00,,2013-07-14 00:12:00,
2013-07-13 20:22:00,78.0,71.0,30.22,SE,138,1.0,1.0,80,0.00,,,0.00,,2013-07-14 00:22:00,
2013-07-13 20:42:00,76.0,73.0,30.24,South,169,4.0,4.0,90,0.00,,,0.00,,2013-07-14 00:42:00,
2013-07-13 20:53:00,76.0,74.0,30.23,South,190,3.0,4.0,93,0.00,,,0.00,,2013-07-14 00:53:00,
2013-07-13 21:02:00,75.0,73.0,30.24,SW,214,2.0,2.0,95,0.00,,,0.00,,2013-07-14 01:02:00,
2013-07-13 21:11:00,75.0,74.0,30.23,SSW,195,0.0,0.0,96,0.00,,,0.00,,2013-07-14 01:11:00,
2013-07-13 21:22:00,74.0,73.0,30.24,SE,125,3.0,3.0,98,0.00,,,0.00,,2013-07-14 01:22:00,
2013-07-13 21:32:00,74.0,74.0,30.24,NE,46,3.0,3.0,99,0.00,,,0.00,,2013-07-14 01:32:00,
2013-07-13 21:43:00,73.0,73.0,30.25,ENE,58,4.0,4.0,99,0.00,,,0.00,,2013-07-14 01:43:00,
2013-07-13 21:52:00,72.0,72.0,30.25,NE,56,1.0,3.0,100,0.00,,,0.00,,2013-07-14 01:52:00,
2013-07-13 22:02:00,73.0,73.0,30.26,East,84,3.0,5.0,100,0.00,,,0.00,,2013-07-14 02:02:00,
2013-07-13 22:11:00,73.0,73.0,30.26,East,82,6.0,6.0,100,0.00,,,0.00,,2013-07-14 02:11:00,
2013-07-13 22:22:00,73.0,73.0,30.27,SSE,163,4.0,4.0,100,0.00,,,0.00,,2013-07-14 02:22:00,
2013-07-13 22:32:00,73.0,73.0,30.27,ESE,113,5.0,5.0,100,0.00,,,0.00,,2013-07-14 02:32:00,
2013-07-13 22:43:00,73.0,73.0,30.27,SSE,152,7.0,8.0,100,0.00,,,0.00,,2013-07-14 02:43:00,
2013-07-13 22:53:00,73.0,73.0,30.28,SSE,155,10.0,11.0,100,0.00,,,0.00,,2013-07-14 02:53:00,
2013-07-13 23:02:00,73.0,73.0,30.28,South,172,11.0,13.0,100,0.00,,,0.00,,2013-07-14 03:02:00,
2013-07-13 23:11:00,73.0,73.0,30.28,SSE,162,10.0,11.0,100,0.00,,,0.00,,2013-07-14 03:11:00,
2013-07-13 23:22:00,73.0,73.0,30.29,South,177,12.0,12.0,100,0.00,,,0.00,,2013-07-14 03:22:00,
2013-07-13 23:32:00,73.0,73.0,30.29,South,176,12.0,12.0,100,0.00,,,0.00,,2013-07-14 03:32:00,
2013-07-13 23:43:00,73.0,73.0,30.29,SSE,160,15.0,16.0,100,0.00,,,0.00,,2013-07-14 03:43:00,
2013-07-13 23:53:00,74.0,74.0,30.29,South,186,14.0,14.0,100,0.00,,,0.00,,2013-07-14 03:53:00,